createdAt,value
2018-08-21T00:00:07.094Z,0
2018-08-21T00:01:15.750Z,0
2018-08-21T00:02:24.388Z,0
2018-08-21T00:03:33.038Z,0
2018-08-21T00:04:41.676Z,0
2018-08-21T00:05:50.334Z,0
2018-08-21T00:06:58.978Z,0
2018-08-21T00:08:07.620Z,0
2018-08-21T00:09:16.275Z,0
2018-08-21T00:10:24.926Z,0
2018-08-21T00:11:33.569Z,0
2018-08-21T00:12:42.221Z,0
2018-08-21T00:13:50.870Z,0
2018-08-21T00:14:59.520Z,0
2018-08-21T00:16:08.697Z,0
2018-08-21T00:17:17.348Z,0
2018-08-21T00:18:25.991Z,0
2018-08-21T00:19:34.649Z,0
2018-08-21T00:20:43.285Z,0
2018-08-21T00:21:51.935Z,0
2018-08-21T00:23:00.577Z,0
2018-08-21T00:24:09.235Z,0
2018-08-21T00:25:17.880Z,0
2018-08-21T00:26:26.519Z,0
2018-08-21T00:27:35.165Z,0
2018-08-21T00:28:43.807Z,0
2018-08-21T00:29:52.468Z,0
2018-08-21T00:31:01.108Z,0
2018-08-21T00:32:10.021Z,0
2018-08-21T00:33:18.660Z,0
2018-08-21T00:34:27.314Z,0
2018-08-21T00:35:35.957Z,0
2018-08-21T00:36:44.609Z,0
2018-08-21T00:37:53.246Z,0
2018-08-21T00:39:02.226Z,0
2018-08-21T00:40:10.818Z,0
2018-08-21T00:41:19.470Z,0
2018-08-21T00:42:28.109Z,0
2018-08-21T00:43:36.757Z,0
2018-08-21T00:44:45.677Z,0
2018-08-21T00:45:54.582Z,0
2018-08-21T00:47:03.233Z,0
2018-08-21T00:48:11.873Z,0
2018-08-21T00:49:20.526Z,0
2018-08-21T00:50:29.170Z,0
2018-08-21T00:51:37.826Z,0
2018-08-21T00:52:46.737Z,0
2018-08-21T00:53:55.660Z,0
2018-08-21T00:55:04.296Z,0
2018-08-21T00:56:12.953Z,0
2018-08-21T00:57:21.850Z,0
2018-08-21T00:58:30.501Z,0
2018-08-21T00:59:39.143Z,0
2018-08-21T01:00:47.798Z,0
2018-08-21T01:01:56.443Z,0
2018-08-21T01:03:05.081Z,0
2018-08-21T01:04:13.991Z,0
2018-08-21T01:05:22.640Z,0
2018-08-21T01:06:31.560Z,0
2018-08-21T01:07:40.205Z,0
2018-08-21T01:08:48.852Z,0
2018-08-21T01:09:57.757Z,0
2018-08-21T01:11:06.408Z,0
2018-08-21T01:12:15.055Z,0
2018-08-21T01:13:23.714Z,0
2018-08-21T01:14:32.350Z,0
2018-08-21T01:15:41.001Z,0
2018-08-21T01:16:49.645Z,0
2018-08-21T01:17:58.295Z,0
2018-08-21T01:19:06.936Z,0
2018-08-21T01:20:15.586Z,0
2018-08-21T01:21:24.236Z,0
2018-08-21T01:22:32.884Z,0
2018-08-21T01:23:41.794Z,0
2018-08-21T01:24:50.636Z,0
2018-08-21T01:25:59.284Z,0
2018-08-21T01:27:07.932Z,0
2018-08-21T01:28:16.584Z,0
2018-08-21T01:29:25.225Z,0
2018-08-21T01:30:33.872Z,0
2018-08-21T01:31:42.519Z,0
2018-08-21T01:32:51.435Z,0
2018-08-21T01:34:00.080Z,0
2018-08-21T01:35:08.724Z,0
2018-08-21T01:36:17.369Z,0
2018-08-21T01:37:26.285Z,0
2018-08-21T01:38:34.938Z,0
2018-08-21T01:39:43.583Z,0
2018-08-21T01:40:52.488Z,0
2018-08-21T01:42:01.132Z,0
2018-08-21T01:43:09.782Z,0
2018-08-21T01:44:18.429Z,0
2018-08-21T01:45:27.075Z,0
2018-08-21T01:46:35.981Z,0
2018-08-21T01:47:44.633Z,0
2018-08-21T01:48:53.541Z,0
2018-08-21T01:50:02.453Z,0
2018-08-21T01:51:11.095Z,0
2018-08-21T01:52:19.745Z,0
2018-08-21T01:53:28.388Z,0
2018-08-21T01:54:37.309Z,0
2018-08-21T01:55:46.210Z,0
2018-08-21T01:56:54.861Z,0
2018-08-21T01:58:03.509Z,0
2018-08-21T01:59:12.696Z,0
2018-08-21T02:00:21.603Z,0
2018-08-21T02:01:30.244Z,0
2018-08-21T02:02:38.891Z,0
2018-08-21T02:03:47.799Z,0
2018-08-21T02:04:56.450Z,0
2018-08-21T02:06:05.624Z,0
2018-08-21T02:07:14.267Z,0
2018-08-21T02:08:22.918Z,0
2018-08-21T02:09:31.557Z,0
2018-08-21T02:10:40.211Z,0
2018-08-21T02:11:48.858Z,0
2018-08-21T02:12:57.508Z,0
2018-08-21T02:14:06.440Z,0
2018-08-21T02:15:15.090Z,0
2018-08-21T02:16:23.746Z,0
2018-08-21T02:17:32.392Z,0
2018-08-21T02:18:41.041Z,0
2018-08-21T02:19:49.675Z,0
2018-08-21T02:20:58.588Z,0
2018-08-21T02:22:07.499Z,0
2018-08-21T02:23:16.153Z,0
2018-08-21T02:24:24.790Z,0
2018-08-21T02:25:33.439Z,0
2018-08-21T02:26:42.079Z,0
2018-08-21T02:27:50.734Z,0
2018-08-21T02:28:59.637Z,0
2018-08-21T02:30:08.551Z,0
2018-08-21T02:31:17.462Z,0
2018-08-21T02:32:26.382Z,0
2018-08-21T02:33:35.296Z,0
2018-08-21T02:34:43.938Z,0
2018-08-21T02:35:52.586Z,0
2018-08-21T02:37:01.230Z,0
2018-08-21T02:38:10.427Z,0
2018-08-21T02:39:19.069Z,0
2018-08-21T02:40:27.722Z,0
2018-08-21T02:41:36.360Z,0
2018-08-21T02:42:45.017Z,0
2018-08-21T02:43:53.659Z,0
2018-08-21T02:45:02.308Z,0
2018-08-21T02:46:10.946Z,0
2018-08-21T02:47:19.601Z,0
2018-08-21T02:48:28.247Z,0
2018-08-21T02:49:36.896Z,0
2018-08-21T02:50:45.535Z,0
2018-08-21T02:51:54.184Z,0
2018-08-21T02:53:03.108Z,0
2018-08-21T02:54:12.020Z,0
2018-08-21T02:55:20.931Z,0
2018-08-21T02:56:29.582Z,0
2018-08-21T02:57:38.217Z,0
2018-08-21T02:58:46.863Z,0
2018-08-21T02:59:55.517Z,0
2018-08-21T03:01:04.153Z,0
2018-08-21T03:02:13.066Z,0
2018-08-21T03:03:21.707Z,0
2018-08-21T03:04:30.625Z,0
2018-08-21T03:05:39.267Z,0
2018-08-21T03:06:47.914Z,0
2018-08-21T03:07:56.557Z,0
2018-08-21T03:09:05.477Z,0
2018-08-21T03:10:14.124Z,0
2018-08-21T03:11:22.775Z,0
2018-08-21T03:12:31.422Z,0
2018-08-21T03:13:40.331Z,0
2018-08-21T03:14:48.986Z,0
2018-08-21T03:15:57.636Z,0
2018-08-21T03:17:06.282Z,0
2018-08-21T03:18:14.931Z,0
2018-08-21T03:19:24.116Z,0
2018-08-21T03:20:33.053Z,0
2018-08-21T03:21:41.710Z,0
2018-08-21T03:22:50.688Z,0
2018-08-21T03:23:59.606Z,0
2018-08-21T03:25:08.518Z,0
2018-08-21T03:26:17.429Z,0
2018-08-21T03:27:26.071Z,0
2018-08-21T03:28:34.717Z,0
2018-08-21T03:29:43.365Z,0
2018-08-21T03:30:52.288Z,0
2018-08-21T03:32:01.199Z,0
2018-08-21T03:33:09.842Z,0
2018-08-21T03:34:18.487Z,0
2018-08-21T03:35:27.135Z,0
2018-08-21T03:36:35.785Z,0
2018-08-21T03:37:44.431Z,0
2018-08-21T03:38:53.082Z,0
2018-08-21T03:40:01.990Z,0
2018-08-21T03:41:10.641Z,0
2018-08-21T03:42:19.281Z,0
2018-08-21T03:43:28.193Z,0
2018-08-21T03:44:36.837Z,0
2018-08-21T03:45:45.750Z,0
2018-08-21T03:46:54.392Z,0
2018-08-21T03:48:03.039Z,0
2018-08-21T03:49:11.684Z,0
2018-08-21T03:50:20.329Z,0
2018-08-21T03:51:28.984Z,0
2018-08-21T03:52:37.629Z,4
2018-08-21T03:53:46.273Z,0
2018-08-21T03:54:54.915Z,4
2018-08-21T03:56:04.360Z,4
2018-08-21T03:57:13.005Z,4
2018-08-21T03:58:21.913Z,8
2018-08-21T03:59:30.555Z,8
2018-08-21T04:00:39.205Z,8
2018-08-21T04:01:48.115Z,8
2018-08-21T04:02:56.757Z,12
2018-08-21T04:04:05.409Z,12
2018-08-21T04:05:14.566Z,12
2018-08-21T04:06:23.557Z,16
2018-08-21T04:07:32.205Z,20
2018-08-21T04:08:40.849Z,24
2018-08-21T04:09:49.498Z,28
2018-08-21T04:10:58.143Z,32
2018-08-21T04:12:06.789Z,36
2018-08-21T04:13:15.434Z,40
2018-08-21T04:14:24.083Z,48
2018-08-21T04:15:32.730Z,52
2018-08-21T04:16:41.379Z,60
2018-08-21T04:17:50.018Z,64
2018-08-21T04:18:58.936Z,68
2018-08-21T04:20:07.621Z,80
2018-08-21T04:21:16.228Z,84
2018-08-21T04:22:24.878Z,96
2018-08-21T04:23:33.528Z,108
2018-08-21T04:24:42.258Z,116
2018-08-21T04:25:50.828Z,132
2018-08-21T04:26:59.478Z,140
2018-08-21T04:28:08.119Z,160
2018-08-21T04:29:16.767Z,176
2018-08-21T04:30:25.411Z,192
2018-08-21T04:31:34.057Z,212
2018-08-21T04:32:42.842Z,232
2018-08-21T04:33:51.871Z,252
2018-08-21T04:35:00.515Z,272
2018-08-21T04:36:09.428Z,292
2018-08-21T04:37:18.067Z,312
2018-08-21T04:38:26.716Z,324
2018-08-21T04:39:35.360Z,340
2018-08-21T04:40:44.012Z,364
2018-08-21T04:41:52.659Z,388
2018-08-21T04:43:01.304Z,412
2018-08-21T04:44:09.949Z,432
2018-08-21T04:45:18.594Z,448
2018-08-21T04:46:27.336Z,472
2018-08-21T04:47:35.889Z,488
2018-08-21T04:48:44.536Z,504
2018-08-21T04:49:53.442Z,520
2018-08-21T04:51:02.090Z,540
2018-08-21T04:52:10.736Z,564
2018-08-21T04:53:19.385Z,588
2018-08-21T04:54:28.025Z,612
2018-08-21T04:55:36.677Z,640
2018-08-21T04:56:45.320Z,668
2018-08-21T04:57:53.975Z,696
2018-08-21T04:59:02.679Z,716
2018-08-21T05:00:11.940Z,744
2018-08-21T05:01:20.584Z,768
2018-08-21T05:02:29.235Z,796
2018-08-21T05:03:37.883Z,824
2018-08-21T05:04:46.785Z,856
2018-08-21T05:05:55.441Z,884
2018-08-21T05:07:04.077Z,912
2018-08-21T05:08:12.996Z,940
2018-08-21T05:09:21.633Z,972
2018-08-21T05:10:30.549Z,1008
2018-08-21T05:11:39.189Z,1040
2018-08-21T05:12:48.222Z,1072
2018-08-21T05:13:56.858Z,1104
2018-08-21T05:15:05.504Z,1128
2018-08-21T05:16:14.151Z,1152
2018-08-21T05:17:22.807Z,1184
2018-08-21T05:18:31.452Z,1212
2018-08-21T05:19:40.093Z,1232
2018-08-21T05:20:49.001Z,1240
2018-08-21T05:21:57.642Z,1264
2018-08-21T05:23:06.297Z,1304
2018-08-21T05:24:14.936Z,1324
2018-08-21T05:25:23.592Z,1344
2018-08-21T05:26:32.226Z,1376
2018-08-21T05:27:40.883Z,1400
2018-08-21T05:28:49.524Z,1428
2018-08-21T05:29:58.182Z,1460
2018-08-21T05:31:07.083Z,1504
2018-08-21T05:32:15.998Z,1544
2018-08-21T05:33:24.659Z,1572
2018-08-21T05:34:33.287Z,1592
2018-08-21T05:35:41.927Z,1616
2018-08-21T05:36:50.573Z,1644
2018-08-21T05:37:59.227Z,1668
2018-08-21T05:39:07.870Z,1684
2018-08-21T05:40:16.793Z,1708
2018-08-21T05:41:25.431Z,1736
2018-08-21T05:42:34.081Z,1760
2018-08-21T05:43:43.174Z,1784
2018-08-21T05:44:51.776Z,1816
2018-08-21T05:46:00.412Z,1840
2018-08-21T05:47:09.333Z,1868
2018-08-21T05:48:17.972Z,1892
2018-08-21T05:49:27.158Z,1912
2018-08-21T05:50:35.807Z,1932
2018-08-21T05:51:44.454Z,1952
2018-08-21T05:52:53.101Z,1984
2018-08-21T05:54:01.759Z,2016
2018-08-21T05:55:10.842Z,2032
2018-08-21T05:56:19.393Z,2048
2018-08-21T05:57:28.037Z,2052
2018-08-21T05:58:36.682Z,2060
2018-08-21T05:59:45.337Z,2072
2018-08-21T06:00:53.976Z,2084
2018-08-21T06:02:02.624Z,2092
2018-08-21T06:03:11.264Z,2104
2018-08-21T06:04:19.913Z,2120
2018-08-21T06:05:28.565Z,2140
2018-08-21T06:06:37.216Z,2164
2018-08-21T06:07:46.123Z,2180
2018-08-21T06:08:55.053Z,2204
2018-08-21T06:10:03.973Z,2236
2018-08-21T06:11:12.622Z,2260
2018-08-21T06:12:21.267Z,2284
2018-08-21T06:13:30.183Z,2308
2018-08-21T06:14:38.831Z,2348
2018-08-21T06:15:47.485Z,2396
2018-08-21T06:16:56.233Z,2448
2018-08-21T06:18:05.223Z,2504
2018-08-21T06:19:14.136Z,2556
2018-08-21T06:20:23.318Z,2596
2018-08-21T06:21:32.115Z,2640
2018-08-21T06:22:40.887Z,2684
2018-08-21T06:23:49.572Z,2760
2018-08-21T06:24:58.311Z,2832
2018-08-21T06:26:06.871Z,2916
2018-08-21T06:27:15.780Z,3008
2018-08-21T06:28:24.960Z,3072
2018-08-21T06:29:33.879Z,3120
2018-08-21T06:30:42.795Z,3184
2018-08-21T06:31:51.751Z,3284
2018-08-21T06:33:00.350Z,3412
2018-08-21T06:34:08.993Z,3532
2018-08-21T06:35:17.930Z,3644
2018-08-21T06:36:26.581Z,3740
2018-08-21T06:37:35.228Z,3836
2018-08-21T06:38:43.875Z,3948
2018-08-21T06:39:52.612Z,4052
2018-08-21T06:41:01.686Z,4168
2018-08-21T06:42:10.328Z,4260
2018-08-21T06:43:18.974Z,4332
2018-08-21T06:44:27.617Z,4380
2018-08-21T06:45:36.281Z,4416
2018-08-21T06:46:44.927Z,4448
2018-08-21T06:47:53.582Z,4496
2018-08-21T06:49:02.229Z,4552
2018-08-21T06:50:10.871Z,4632
2018-08-21T06:51:19.523Z,4716
2018-08-21T06:52:28.174Z,4784
2018-08-21T06:53:36.823Z,4844
2018-08-21T06:54:45.467Z,4892
2018-08-21T06:55:54.119Z,4924
2018-08-21T06:57:02.763Z,4964
2018-08-21T06:58:11.681Z,5012
2018-08-21T06:59:20.325Z,5040
2018-08-21T07:00:29.243Z,5096
2018-08-21T07:01:37.888Z,5164
2018-08-21T07:02:46.559Z,5216
2018-08-21T07:03:55.199Z,5264
2018-08-21T07:05:03.850Z,5276
2018-08-21T07:06:12.501Z,5272
2018-08-21T07:07:21.162Z,5192
2018-08-21T07:08:29.811Z,5136
2018-08-21T07:09:38.453Z,5116
2018-08-21T07:10:47.098Z,5116
2018-08-21T07:11:56.013Z,5148
2018-08-21T07:13:04.671Z,5192
2018-08-21T07:14:13.315Z,5216
2018-08-21T07:15:21.969Z,5192
2018-08-21T07:16:30.610Z,5132
2018-08-21T07:17:39.265Z,5092
2018-08-21T07:18:47.908Z,5088
2018-08-21T07:19:56.563Z,5096
2018-08-21T07:21:05.204Z,5112
2018-08-21T07:22:13.869Z,5124
2018-08-21T07:23:22.511Z,5144
2018-08-21T07:24:31.165Z,5172
2018-08-21T07:25:39.808Z,5180
2018-08-21T07:26:48.719Z,5168
2018-08-21T07:27:57.373Z,5168
2018-08-21T07:29:06.310Z,5192
2018-08-21T07:30:14.936Z,5224
2018-08-21T07:31:23.578Z,5260
2018-08-21T07:32:32.231Z,5292
2018-08-21T07:33:40.881Z,5324
2018-08-21T07:34:49.541Z,5332
2018-08-21T07:35:58.182Z,5356
2018-08-21T07:37:07.102Z,5392
2018-08-21T07:38:15.747Z,5420
2018-08-21T07:39:24.676Z,5432
2018-08-21T07:40:33.579Z,5448
2018-08-21T07:41:42.230Z,5476
2018-08-21T07:42:50.876Z,5516
2018-08-21T07:43:59.536Z,5544
2018-08-21T07:45:08.182Z,5564
2018-08-21T07:46:16.834Z,5560
2018-08-21T07:47:25.481Z,5540
2018-08-21T07:48:34.124Z,5500
2018-08-21T07:49:42.784Z,5460
2018-08-21T07:50:51.429Z,5424
2018-08-21T07:52:00.084Z,5372
2018-08-21T07:53:08.725Z,5296
2018-08-21T07:54:17.386Z,5248
2018-08-21T07:55:26.036Z,5216
2018-08-21T07:56:34.694Z,5212
2018-08-21T07:57:43.347Z,5232
2018-08-21T07:58:51.988Z,5284
2018-08-21T08:00:00.642Z,5340
2018-08-21T08:01:09.291Z,5388
2018-08-21T08:02:18.212Z,5412
2018-08-21T08:03:26.859Z,5408
2018-08-21T08:04:35.510Z,5400
2018-08-21T08:05:44.421Z,5368
2018-08-21T08:06:53.072Z,5324
2018-08-21T08:08:02.263Z,5280
2018-08-21T08:09:11.172Z,5268
2018-08-21T08:10:19.828Z,5288
2018-08-21T08:11:28.470Z,5324
2018-08-21T08:12:37.390Z,5384
2018-08-21T08:13:46.143Z,5464
2018-08-21T08:14:54.691Z,5556
2018-08-21T08:16:03.333Z,5644
2018-08-21T08:17:11.992Z,5688
2018-08-21T08:18:20.642Z,5716
2018-08-21T08:19:29.296Z,5732
2018-08-21T08:20:37.960Z,5748
2018-08-21T08:21:46.592Z,5756
2018-08-21T08:22:55.322Z,5804
2018-08-21T08:24:03.907Z,5904
2018-08-21T08:25:12.563Z,5968
2018-08-21T08:26:21.204Z,6000
2018-08-21T08:27:29.862Z,6012
2018-08-21T08:28:38.512Z,5984
2018-08-21T08:29:47.172Z,5928
2018-08-21T08:30:55.812Z,5844
2018-08-21T08:32:04.468Z,5788
2018-08-21T08:33:13.116Z,5744
2018-08-21T08:34:21.777Z,5732
2018-08-21T08:35:30.419Z,5696
2018-08-21T08:36:39.072Z,5640
2018-08-21T08:37:47.721Z,5624
2018-08-21T08:38:56.385Z,5640
2018-08-21T08:40:05.029Z,5644
2018-08-21T08:41:13.675Z,5632
2018-08-21T08:42:22.595Z,5652
2018-08-21T08:43:31.247Z,5668
2018-08-21T08:44:40.179Z,5692
2018-08-21T08:45:48.826Z,5740
2018-08-21T08:46:57.482Z,5812
2018-08-21T08:48:06.126Z,5876
2018-08-21T08:49:29.331Z,5944
2018-08-21T08:51:03.406Z,6044
2018-08-21T08:52:12.331Z,6088
2018-08-21T08:53:31.492Z,6124
2018-08-21T08:54:40.825Z,6160
2018-08-21T08:55:49.732Z,6204
2018-08-21T08:56:58.387Z,6288
2018-08-21T08:58:07.032Z,6352
2018-08-21T08:59:15.738Z,6408
2018-08-21T09:00:24.344Z,6440
2018-08-21T09:01:35.405Z,6448
2018-08-21T09:02:47.607Z,6444
2018-08-21T09:03:59.299Z,6432
2018-08-21T09:05:11.798Z,6452
2018-08-21T09:06:22.135Z,6484
2018-08-21T09:07:34.216Z,6500
2018-08-21T09:08:45.728Z,6504
2018-08-21T09:09:57.539Z,6492
2018-08-21T09:11:08.656Z,6508
2018-08-21T09:12:20.332Z,6548
2018-08-21T09:13:30.999Z,6568
2018-08-21T09:14:42.015Z,6592
2018-08-21T09:15:55.077Z,6588
2018-08-21T09:17:07.006Z,6560
2018-08-21T09:18:19.949Z,6524
2018-08-21T09:19:32.558Z,6496
2018-08-21T09:20:45.156Z,6460
2018-08-21T09:21:58.261Z,6496
2018-08-21T09:23:11.248Z,6560
2018-08-21T09:24:23.105Z,6620
2018-08-21T09:25:34.309Z,6620
2018-08-21T09:26:46.807Z,6580
2018-08-21T09:27:59.041Z,6512
2018-08-21T09:29:10.107Z,6428
2018-08-21T09:30:22.996Z,6376
2018-08-21T09:31:37.110Z,6360
2018-08-21T09:32:49.180Z,6368
2018-08-21T09:34:01.924Z,6408
2018-08-21T09:35:14.764Z,6452
2018-08-21T09:36:27.315Z,6484
2018-08-21T09:37:40.521Z,6540
2018-08-21T09:38:51.487Z,6576
2018-08-21T09:40:03.408Z,6600
2018-08-21T09:41:14.583Z,6608
2018-08-21T09:42:25.508Z,6584
2018-08-21T09:43:36.792Z,6556
2018-08-21T09:44:47.765Z,6540
2018-08-21T09:46:00.641Z,6520
2018-08-21T09:47:09.729Z,6492
2018-08-21T09:48:18.380Z,6432
2018-08-21T09:49:27.214Z,6368
2018-08-21T09:50:36.379Z,6344
2018-08-21T09:51:45.180Z,6344
2018-08-21T09:52:53.771Z,6364
2018-08-21T09:54:02.423Z,6412
2018-08-21T09:55:11.355Z,6492
2018-08-21T09:56:20.000Z,6544
2018-08-21T09:57:28.656Z,6544
2018-08-21T09:58:37.306Z,6500
2018-08-21T09:59:45.957Z,6424
2018-08-21T10:00:54.617Z,6320
2018-08-21T10:02:03.588Z,6216
2018-08-21T10:03:12.257Z,6148
2018-08-21T10:04:20.904Z,6072
2018-08-21T10:05:29.578Z,6020
2018-08-21T10:06:38.248Z,5976
2018-08-21T10:07:46.889Z,5920
2018-08-21T10:08:55.800Z,5884
2018-08-21T10:10:04.458Z,5864
2018-08-21T10:11:13.111Z,5836
2018-08-21T10:12:22.034Z,5828
2018-08-21T10:13:30.746Z,5808
2018-08-21T10:14:39.707Z,5784
2018-08-21T10:15:48.355Z,5736
2018-08-21T10:16:57.214Z,5732
2018-08-21T10:18:05.884Z,5728
2018-08-21T10:19:14.795Z,5728
2018-08-21T10:20:23.715Z,5744
2018-08-21T10:21:32.367Z,5760
2018-08-21T10:22:41.027Z,5788
2018-08-21T10:23:49.677Z,5792
2018-08-21T10:24:58.597Z,5784
2018-08-21T10:26:07.518Z,5776
2018-08-21T10:27:16.185Z,5812
2018-08-21T10:28:25.102Z,5896
2018-08-21T10:29:34.414Z,6004
2018-08-21T10:30:43.062Z,6116
2018-08-21T10:31:51.981Z,6248
2018-08-21T10:33:00.971Z,6392
2018-08-21T10:34:09.623Z,6544
2018-08-21T10:35:18.277Z,6652
2018-08-21T10:36:26.924Z,6732
2018-08-21T10:37:35.582Z,6768
2018-08-21T10:38:44.235Z,6764
2018-08-21T10:39:52.891Z,6732
2018-08-21T10:41:01.804Z,6708
2018-08-21T10:42:10.733Z,6688
2018-08-21T10:43:19.385Z,6648
2018-08-21T10:44:28.302Z,6584
2018-08-21T10:45:37.129Z,6500
2018-08-21T10:46:45.788Z,6468
2018-08-21T10:47:54.436Z,6468
2018-08-21T10:49:03.620Z,6448
2018-08-21T10:50:12.267Z,6428
2018-08-21T10:51:20.921Z,6488
2018-08-21T10:52:29.573Z,6548
2018-08-21T10:53:38.496Z,6648
2018-08-21T10:54:47.197Z,6668
2018-08-21T10:55:56.112Z,6708
2018-08-21T10:57:04.772Z,6844
2018-08-21T10:58:13.689Z,6764
2018-08-21T10:59:22.353Z,6732
2018-08-21T11:00:31.010Z,6780
2018-08-21T11:01:39.666Z,6768
2018-08-21T11:02:48.313Z,6736
2018-08-21T11:03:57.242Z,6748
2018-08-21T11:05:06.423Z,6752
2018-08-21T11:06:15.346Z,6712
2018-08-21T11:07:24.264Z,6604
2018-08-21T11:08:32.921Z,6500
2018-08-21T11:09:41.570Z,6428
2018-08-21T11:10:50.221Z,6356
2018-08-21T11:11:58.871Z,6296
2018-08-21T11:13:07.524Z,6292
2018-08-21T11:14:16.723Z,6096
2018-08-21T11:15:25.375Z,5888
2018-08-21T11:16:34.033Z,5632
2018-08-21T11:17:42.684Z,5428
2018-08-21T11:18:51.347Z,5300
2018-08-21T11:19:59.995Z,5260
2018-08-21T11:21:08.730Z,5288
2018-08-21T11:22:17.295Z,5316
2018-08-21T11:23:25.958Z,5296
2018-08-21T11:24:34.731Z,5280
2018-08-21T11:25:43.388Z,5240
2018-08-21T11:26:52.031Z,5272
2018-08-21T11:28:00.695Z,5268
2018-08-21T11:29:09.880Z,5272
2018-08-21T11:30:18.535Z,5256
2018-08-21T11:31:27.192Z,5184
2018-08-21T11:32:35.834Z,5144
2018-08-21T11:33:44.492Z,5112
2018-08-21T11:34:53.140Z,5088
2018-08-21T11:36:01.801Z,5060
2018-08-21T11:37:10.446Z,5032
2018-08-21T11:38:19.104Z,4964
2018-08-21T11:39:27.752Z,4752
2018-08-21T11:40:36.417Z,4588
2018-08-21T11:41:45.061Z,4508
2018-08-21T11:42:53.724Z,4472
2018-08-21T11:44:02.374Z,4500
2018-08-21T11:45:11.037Z,4516
2018-08-21T11:46:19.688Z,4480
2018-08-21T11:47:28.340Z,4332
2018-08-21T11:48:36.994Z,4164
2018-08-21T11:49:45.648Z,4064
2018-08-21T11:50:54.306Z,4028
2018-08-21T11:52:02.955Z,4088
2018-08-21T11:53:11.608Z,4196
2018-08-21T11:54:20.515Z,4260
2018-08-21T11:55:29.171Z,4244
2018-08-21T11:56:38.097Z,4204
2018-08-21T11:57:46.744Z,4196
2018-08-21T11:58:55.408Z,4216
2018-08-21T12:00:04.052Z,4364
2018-08-21T12:01:12.707Z,4356
2018-08-21T12:02:21.359Z,4600
2018-08-21T12:03:30.061Z,4272
2018-08-21T12:04:39.045Z,4288
2018-08-21T12:05:47.700Z,4716
2018-08-21T12:06:56.620Z,4328
2018-08-21T12:08:05.273Z,4524
2018-08-21T12:09:14.206Z,4792
2018-08-21T12:10:23.122Z,5264
2018-08-21T12:11:31.780Z,5684
2018-08-21T12:12:40.690Z,5800
2018-08-21T12:13:49.614Z,5776
2018-08-21T12:14:58.270Z,5632
2018-08-21T12:16:07.193Z,5608
2018-08-21T12:17:15.837Z,5904
2018-08-21T12:18:24.495Z,5752
2018-08-21T12:19:33.150Z,5888
2018-08-21T12:20:41.805Z,5448
2018-08-21T12:21:50.452Z,6172
2018-08-21T12:22:59.365Z,6296
2018-08-21T12:24:08.025Z,6524
2018-08-21T12:25:16.679Z,6528
2018-08-21T12:26:25.602Z,6592
2018-08-21T12:27:34.246Z,6508
2018-08-21T12:28:42.904Z,6400
2018-08-21T12:29:51.618Z,6280
2018-08-21T12:31:00.219Z,6156
2018-08-21T12:32:08.861Z,5920
2018-08-21T12:33:17.521Z,5860
2018-08-21T12:34:26.170Z,5720
2018-08-21T12:35:34.832Z,5604
2018-08-21T12:36:43.479Z,5552
2018-08-21T12:37:52.135Z,5504
2018-08-21T12:39:00.791Z,5360
2018-08-21T12:40:09.462Z,5228
2018-08-21T12:41:18.392Z,5028
2018-08-21T12:42:27.039Z,4924
2018-08-21T12:43:35.691Z,4848
2018-08-21T12:44:44.344Z,4812
2018-08-21T12:45:53.007Z,4544
2018-08-21T12:47:01.922Z,4232
2018-08-21T12:48:10.582Z,4436
2018-08-21T12:49:19.227Z,4228
2018-08-21T12:50:27.963Z,4564
2018-08-21T12:51:36.904Z,4576
2018-08-21T12:52:45.568Z,4436
2018-08-21T12:53:54.214Z,2940
2018-08-21T12:55:02.876Z,2760
2018-08-21T12:56:11.839Z,2656
2018-08-21T12:57:20.500Z,2632
2018-08-21T12:58:29.149Z,2492
2018-08-21T12:59:37.807Z,2420
2018-08-21T13:00:46.461Z,2480
2018-08-21T13:01:55.117Z,2584
2018-08-21T13:03:04.043Z,2720
2018-08-21T13:04:12.691Z,2708
2018-08-21T13:05:21.349Z,2740
2018-08-21T13:06:30.269Z,2852
2018-08-21T13:07:38.926Z,3104
2018-08-21T13:08:47.575Z,3444
2018-08-21T13:09:56.229Z,3700
2018-08-21T13:11:05.147Z,3948
2018-08-21T13:12:13.802Z,4784
2018-08-21T13:13:22.716Z,5832
2018-08-21T13:14:31.376Z,5912
2018-08-21T13:15:40.026Z,5196
2018-08-21T13:16:48.684Z,4904
2018-08-21T13:17:57.335Z,5172
2018-08-21T13:19:06.256Z,5220
2018-08-21T13:20:14.907Z,5432
2018-08-21T13:21:23.557Z,5636
2018-08-21T13:22:32.214Z,5704
2018-08-21T13:23:40.869Z,5720
2018-08-21T13:24:49.585Z,6228
2018-08-21T13:25:58.173Z,6276
2018-08-21T13:27:06.829Z,6160
2018-08-21T13:28:15.755Z,5696
2018-08-21T13:29:24.438Z,5508
2018-08-21T13:30:33.063Z,5404
2018-08-21T13:31:41.726Z,5364
2018-08-21T13:32:50.376Z,5352
2018-08-21T13:33:59.033Z,5244
2018-08-21T13:35:07.684Z,5060
2018-08-21T13:36:16.470Z,5012
2018-08-21T13:37:25.293Z,5028
2018-08-21T13:38:33.952Z,5268
2018-08-21T13:39:42.872Z,5292
2018-08-21T13:40:51.523Z,5324
2018-08-21T13:42:00.177Z,4812
2018-08-21T13:43:08.832Z,4808
2018-08-21T13:44:17.840Z,4760
2018-08-21T13:45:27.063Z,4712
2018-08-21T13:46:35.727Z,4588
2018-08-21T13:47:44.379Z,4572
2018-08-21T13:48:53.307Z,4412
2018-08-21T13:50:01.953Z,4260
2018-08-21T13:51:10.619Z,4080
2018-08-21T13:52:19.273Z,3944
2018-08-21T13:53:27.932Z,3888
2018-08-21T13:54:36.845Z,3848
2018-08-21T13:55:45.495Z,3808
2018-08-21T13:56:54.152Z,3756
2018-08-21T13:58:03.323Z,3716
2018-08-21T13:59:11.986Z,3672
2018-08-21T14:00:20.639Z,3680
2018-08-21T14:01:29.301Z,3656
2018-08-21T14:02:37.943Z,3544
2018-08-21T14:03:46.606Z,3536
2018-08-21T14:04:55.264Z,3484
2018-08-21T14:06:04.187Z,3524
2018-08-21T14:07:12.829Z,3712
2018-08-21T14:08:21.756Z,3580
2018-08-21T14:09:30.406Z,3468
2018-08-21T14:10:39.064Z,3460
2018-08-21T14:11:47.980Z,3464
2018-08-21T14:12:56.681Z,3496
2018-08-21T14:14:05.295Z,3540
2018-08-21T14:15:13.953Z,3608
2018-08-21T14:16:22.609Z,3692
2018-08-21T14:17:31.252Z,3788
2018-08-21T14:18:39.910Z,3828
2018-08-21T14:19:48.562Z,3880
2018-08-21T14:20:57.486Z,3960
2018-08-21T14:22:06.399Z,4076
2018-08-21T14:23:15.057Z,4096
2018-08-21T14:24:23.706Z,4148
2018-08-21T14:25:32.369Z,4176
2018-08-21T14:26:41.276Z,4200
2018-08-21T14:27:50.220Z,4236
2018-08-21T14:28:58.853Z,4268
2018-08-21T14:30:07.515Z,4308
2018-08-21T14:31:16.168Z,4344
2018-08-21T14:32:24.820Z,4364
2018-08-21T14:33:33.468Z,4368
2018-08-21T14:34:42.383Z,4380
2018-08-21T14:35:51.046Z,4340
2018-08-21T14:36:59.960Z,4280
2018-08-21T14:38:08.617Z,4260
2018-08-21T14:39:17.526Z,4256
2018-08-21T14:40:26.188Z,4248
2018-08-21T14:41:34.837Z,4240
2018-08-21T14:42:43.519Z,4236
2018-08-21T14:43:52.142Z,4208
2018-08-21T14:45:00.806Z,4196
2018-08-21T14:46:10.168Z,4208
2018-08-21T14:47:18.701Z,4240
2018-08-21T14:48:27.348Z,4252
2018-08-21T14:49:36.004Z,4264
2018-08-21T14:50:44.667Z,4248
2018-08-21T14:51:53.317Z,4236
2018-08-21T14:53:02.248Z,4204
2018-08-21T14:54:10.887Z,4172
2018-08-21T14:55:19.543Z,4148
2018-08-21T14:56:28.511Z,4144
2018-08-21T14:57:37.171Z,4160
2018-08-21T14:58:45.818Z,4164
2018-08-21T14:59:54.471Z,4168
2018-08-21T15:01:03.129Z,4188
2018-08-21T15:02:12.050Z,4192
2018-08-21T15:03:20.710Z,4180
2018-08-21T15:04:29.368Z,4192
2018-08-21T15:05:38.018Z,4196
2018-08-21T15:06:46.676Z,4184
2018-08-21T15:07:55.327Z,4160
2018-08-21T15:09:03.979Z,4132
2018-08-21T15:10:12.670Z,4092
2018-08-21T15:11:21.946Z,4040
2018-08-21T15:12:30.607Z,3984
2018-08-21T15:13:39.261Z,3936
2018-08-21T15:14:47.915Z,3896
2018-08-21T15:15:56.568Z,3844
2018-08-21T15:17:05.229Z,3796
2018-08-21T15:18:14.143Z,3760
2018-08-21T15:19:22.797Z,3716
2018-08-21T15:20:31.446Z,3680
2018-08-21T15:21:40.374Z,3652
2018-08-21T15:22:49.027Z,3636
2018-08-21T15:23:57.683Z,3600
2018-08-21T15:25:06.332Z,3560
2018-08-21T15:26:14.988Z,3512
2018-08-21T15:27:23.641Z,3464
2018-08-21T15:28:32.299Z,3416
2018-08-21T15:29:41.221Z,3376
2018-08-21T15:30:49.869Z,3332
2018-08-21T15:31:58.522Z,3296
2018-08-21T15:33:07.181Z,3276
2018-08-21T15:34:15.840Z,3288
2018-08-21T15:35:24.488Z,3288
2018-08-21T15:36:33.141Z,3252
2018-08-21T15:37:41.798Z,3220
2018-08-21T15:38:50.454Z,3176
2018-08-21T15:39:59.728Z,3108
2018-08-21T15:41:08.838Z,3040
2018-08-21T15:42:17.468Z,2980
2018-08-21T15:43:26.146Z,2932
2018-08-21T15:44:34.844Z,2896